createdAt,value
2022-11-16T00:01:54.462Z,8.30
2022-11-16T00:04:21.313Z,8.22
2022-11-16T00:06:49.630Z,8.15
2022-11-16T00:09:22.881Z,8.28
2022-11-16T00:11:51.743Z,7.99
2022-11-16T00:14:19.823Z,7.73
2022-11-16T00:16:46.936Z,7.79
2022-11-16T00:19:14.133Z,7.95
2022-11-16T00:21:41.263Z,7.86
2022-11-16T00:24:10.594Z,7.97
2022-11-16T00:26:37.406Z,8.06
2022-11-16T00:29:04.533Z,8.01
2022-11-16T00:31:31.537Z,8.19
2022-11-16T00:33:58.528Z,8.34
2022-11-16T00:36:25.358Z,8.53
2022-11-16T00:38:54.148Z,8.74
2022-11-16T00:41:21.183Z,8.70
2022-11-16T00:43:50.162Z,8.95
2022-11-16T00:46:17.376Z,9.07
2022-11-16T00:48:44.282Z,9.17
2022-11-16T00:51:12.168Z,9.20
2022-11-16T00:53:39.357Z,9.33
2022-11-16T00:56:06.733Z,9.28
2022-11-16T00:59:11.736Z,9.30
2022-11-16T01:02:41.988Z,9.10
2022-11-16T01:05:09.953Z,9.09
2022-11-16T01:07:38.441Z,9.19
2022-11-16T01:10:08.919Z,9.27
2022-11-16T01:12:35.709Z,9.24
2022-11-16T01:15:03.102Z,9.42
2022-11-16T01:17:30.006Z,9.58
2022-11-16T01:19:56.772Z,9.61
2022-11-16T01:22:23.597Z,9.67
2022-11-16T01:24:53.194Z,9.76
2022-11-16T01:27:20.097Z,9.75
2022-11-16T01:29:47.075Z,9.89
2022-11-16T01:32:16.909Z,9.93
2022-11-16T01:34:43.705Z,9.88
2022-11-16T01:37:10.585Z,9.93
2022-11-16T01:39:37.698Z,9.94
2022-11-16T01:42:04.894Z,9.79
2022-11-16T01:44:31.597Z,9.86
2022-11-16T01:46:59.644Z,9.86
2022-11-16T01:49:32.344Z,9.89
2022-11-16T01:52:05.064Z,9.77
2022-11-16T01:54:34.595Z,9.70
2022-11-16T01:57:05.535Z,9.62
2022-11-16T01:59:35.969Z,9.60
2022-11-16T02:02:03.576Z,9.48
2022-11-16T02:04:32.216Z,9.45
2022-11-16T02:07:27.868Z,9.33
2022-11-16T02:10:00.808Z,9.27
2022-11-16T02:13:11.840Z,9.26
2022-11-16T02:15:48.045Z,9.26
2022-11-16T02:18:48.554Z,9.23
2022-11-16T02:21:28.197Z,9.23
2022-11-16T02:24:32.265Z,9.09
2022-11-16T02:26:58.984Z,9.16
2022-11-16T02:29:31.546Z,9.18
2022-11-16T02:32:17.684Z,9.09
2022-11-16T02:34:57.046Z,9.15
2022-11-16T02:37:26.538Z,9.15
2022-11-16T02:39:57.798Z,9.13
2022-11-16T02:42:33.033Z,9.19
2022-11-16T02:45:02.397Z,9.18
2022-11-16T02:47:33.429Z,9.20
2022-11-16T02:50:05.703Z,9.10
2022-11-16T02:52:32.562Z,8.89
2022-11-16T02:54:59.360Z,8.79
2022-11-16T02:57:40.749Z,8.63
2022-11-16T03:00:15.926Z,8.56
2022-11-16T03:03:00.803Z,8.35
2022-11-16T03:05:33.819Z,8.22
2022-11-16T03:08:18.704Z,8.08
2022-11-16T03:11:10.564Z,7.91
2022-11-16T03:13:39.300Z,7.86
2022-11-16T03:16:34.946Z,7.94
2022-11-16T03:19:05.826Z,7.73
2022-11-16T03:22:07.601Z,7.91
2022-11-16T03:24:34.592Z,7.70
2022-11-16T03:27:26.017Z,7.43
2022-11-16T03:30:00.282Z,7.46
2022-11-16T03:32:46.288Z,7.17
2022-11-16T03:35:21.320Z,7.17
2022-11-16T03:37:50.974Z,6.99
2022-11-16T03:40:19.451Z,7.14
2022-11-16T03:42:49.820Z,7.13
2022-11-16T03:45:18.918Z,7.12
2022-11-16T03:47:46.567Z,7.08
2022-11-16T03:50:14.061Z,7.11
2022-11-16T03:52:41.471Z,7.13
2022-11-16T03:55:08.723Z,7.14
2022-11-16T03:57:35.855Z,7.06
2022-11-16T04:00:02.885Z,7.17
2022-11-16T04:02:29.742Z,7.23
2022-11-16T04:05:15.345Z,7.16
2022-11-16T04:08:01.205Z,7.20
2022-11-16T04:10:46.831Z,7.15
2022-11-16T04:13:34.171Z,7.00
2022-11-16T04:16:19.765Z,6.92
2022-11-16T04:19:05.402Z,6.82
2022-11-16T04:21:58.512Z,6.79
2022-11-16T04:24:29.761Z,6.85
2022-11-16T04:27:19.390Z,6.78
2022-11-16T04:29:46.850Z,6.81
2022-11-16T04:32:32.178Z,6.62
2022-11-16T04:35:17.562Z,6.77
2022-11-16T04:37:50.620Z,6.65
2022-11-16T04:40:24.919Z,6.70
2022-11-16T04:42:57.496Z,6.77
2022-11-16T04:45:51.588Z,6.84
2022-11-16T04:48:19.986Z,6.87
2022-11-16T04:50:47.808Z,6.89
2022-11-16T04:53:15.554Z,6.98
2022-11-16T04:55:42.755Z,6.99
2022-11-16T04:58:09.598Z,6.89
2022-11-16T05:00:36.520Z,7.00
2022-11-16T05:03:05.035Z,7.08
2022-11-16T05:05:31.845Z,7.21
2022-11-16T05:07:58.733Z,7.35
2022-11-16T05:10:25.854Z,7.25
2022-11-16T05:12:52.605Z,7.42
2022-11-16T05:15:19.989Z,7.48
2022-11-16T05:17:47.627Z,7.62
2022-11-16T05:20:33.045Z,7.63
2022-11-16T05:23:00.206Z,7.80
2022-11-16T05:25:31.269Z,7.84
2022-11-16T05:28:00.786Z,7.79
2022-11-16T05:30:29.796Z,7.93
2022-11-16T05:32:56.734Z,7.97
2022-11-16T05:35:23.495Z,8.04
2022-11-16T05:37:50.320Z,7.99
2022-11-16T05:40:17.206Z,8.12
2022-11-16T05:42:44.038Z,8.12
2022-11-16T05:45:11.146Z,8.08
2022-11-16T05:47:37.939Z,8.19
2022-11-16T05:50:05.157Z,8.82
2022-11-16T05:52:32.033Z,9.29
2022-11-16T05:54:58.825Z,9.90
2022-11-16T05:57:25.587Z,9.63
2022-11-16T06:00:00.156Z,9.38
2022-11-16T06:02:27.264Z,9.33
2022-11-16T06:04:54.085Z,9.19
2022-11-16T06:07:21.039Z,9.45
2022-11-16T06:09:47.838Z,9.61
2022-11-16T06:12:14.667Z,9.75
2022-11-16T06:14:41.495Z,10.25
2022-11-16T06:17:08.827Z,10.44
2022-11-16T06:19:35.596Z,10.77
2022-11-16T06:22:02.434Z,11.02
2022-11-16T06:24:29.266Z,11.10
2022-11-16T06:26:56.053Z,11.01
2022-11-16T06:29:23.074Z,10.91
2022-11-16T06:31:49.973Z,10.97
2022-11-16T06:34:17.195Z,10.96
2022-11-16T06:36:43.999Z,10.98
2022-11-16T06:39:13.037Z,11.09
2022-11-16T06:41:41.680Z,10.97
2022-11-16T06:44:08.757Z,10.98
2022-11-16T06:46:35.549Z,10.94
2022-11-16T06:49:02.340Z,10.93
2022-11-16T06:51:29.214Z,10.98
2022-11-16T06:53:55.978Z,11.08
2022-11-16T06:56:22.885Z,11.03
2022-11-16T06:58:53.196Z,10.92
2022-11-16T07:01:20.572Z,11.04
2022-11-16T07:03:47.509Z,11.02
2022-11-16T07:06:14.969Z,11.07
2022-11-16T07:08:41.834Z,11.13
2022-11-16T07:11:10.031Z,11.20
2022-11-16T07:13:38.193Z,11.19
2022-11-16T07:16:09.537Z,11.32
2022-11-16T07:18:38.207Z,11.35
2022-11-16T07:21:16.745Z,11.45
2022-11-16T07:23:44.826Z,11.66
2022-11-16T07:26:11.978Z,11.98
2022-11-16T07:28:42.171Z,12.51
2022-11-16T07:31:15.464Z,12.64
2022-11-16T07:33:42.402Z,12.69
2022-11-16T07:36:15.574Z,13.02
2022-11-16T07:38:42.504Z,13.16
2022-11-16T07:41:18.128Z,13.02
2022-11-16T07:43:51.552Z,12.94
2022-11-16T07:46:51.477Z,12.90
2022-11-16T07:49:14.010Z,12.88
2022-11-16T07:51:40.952Z,12.85
2022-11-16T07:54:08.394Z,12.90
2022-11-16T07:56:35.312Z,12.90
2022-11-16T07:59:02.563Z,12.89
2022-11-16T08:01:29.568Z,13.02
2022-11-16T08:03:56.544Z,13.10
2022-11-16T08:06:26.107Z,13.30
2022-11-16T08:08:57.970Z,13.34
2022-11-16T08:11:26.077Z,13.41
2022-11-16T08:13:53.060Z,13.51
2022-11-16T08:16:22.334Z,13.53
2022-11-16T08:18:49.699Z,13.53
2022-11-16T08:21:18.564Z,13.50
2022-11-16T08:23:46.008Z,13.50
2022-11-16T08:26:18.646Z,13.55
2022-11-16T08:28:47.488Z,13.40
2022-11-16T08:31:17.069Z,13.50
2022-11-16T08:33:43.899Z,13.45
2022-11-16T08:36:17.253Z,13.40
2022-11-16T08:38:46.373Z,13.36
2022-11-16T08:41:14.283Z,13.36
2022-11-16T08:43:41.637Z,13.22
2022-11-16T08:46:09.997Z,13.25
2022-11-16T08:48:37.674Z,13.18
2022-11-16T08:51:21.556Z,13.21
2022-11-16T08:53:49.612Z,13.15
2022-11-16T08:56:18.696Z,13.18
2022-11-16T08:58:52.614Z,13.25
2022-11-16T09:01:25.702Z,13.26
2022-11-16T09:03:53.837Z,13.16
2022-11-16T09:06:21.573Z,12.97
2022-11-16T09:08:48.801Z,13.20
2022-11-16T09:11:18.599Z,13.26
2022-11-16T09:13:47.120Z,13.43
2022-11-16T09:16:16.863Z,13.59
2022-11-16T09:18:46.793Z,13.51
2022-11-16T09:21:19.253Z,13.52
2022-11-16T09:23:47.254Z,13.53
2022-11-16T09:26:14.716Z,13.43
2022-11-16T09:28:41.819Z,13.29
2022-11-16T09:31:10.368Z,13.42
2022-11-16T09:33:38.068Z,13.37
2022-11-16T09:36:08.070Z,13.38
2022-11-16T09:39:13.959Z,13.27
2022-11-16T09:41:26.589Z,13.26
2022-11-16T09:44:10.005Z,13.29
2022-11-16T09:46:56.054Z,13.36
2022-11-16T09:49:31.370Z,13.42
2022-11-16T09:52:03.072Z,13.21
2022-11-16T09:54:36.237Z,13.21
2022-11-16T09:57:12.367Z,13.27
2022-11-16T09:59:45.530Z,13.31
2022-11-16T10:02:42.269Z,13.22
2022-11-16T10:05:20.575Z,13.17
2022-11-16T10:07:51.720Z,13.40
2022-11-16T10:10:42.897Z,13.48
2022-11-16T10:13:09.834Z,13.62
2022-11-16T10:16:03.314Z,13.72
2022-11-16T10:18:54.265Z,13.56
2022-11-16T10:21:42.332Z,13.56
2022-11-16T10:24:56.709Z,13.63
2022-11-16T10:27:44.726Z,13.58
2022-11-16T10:30:21.376Z,13.64
2022-11-16T10:33:08.160Z,13.70
2022-11-16T10:35:42.589Z,13.50
2022-11-16T10:38:20.509Z,13.64
2022-11-16T10:40:52.036Z,13.62
2022-11-16T10:43:23.401Z,13.49
2022-11-16T10:46:08.617Z,13.59
2022-11-16T10:49:07.460Z,13.64
2022-11-16T10:51:34.431Z,13.67
2022-11-16T10:54:01.406Z,13.78
2022-11-16T10:56:42.777Z,13.82
2022-11-16T10:59:18.041Z,13.67
2022-11-16T11:01:53.468Z,13.76
2022-11-16T11:04:24.533Z,13.65
2022-11-16T11:06:55.962Z,13.60
2022-11-16T11:09:29.554Z,13.65
2022-11-16T11:12:38.327Z,13.61
2022-11-16T11:15:27.132Z,13.67
2022-11-16T11:18:12.219Z,14.01
2022-11-16T11:20:44.732Z,14.17
2022-11-16T11:23:17.090Z,14.46
2022-11-16T11:25:59.402Z,14.67
2022-11-16T11:28:32.809Z,14.82
2022-11-16T11:31:04.614Z,14.96
2022-11-16T11:34:00.731Z,15.05
2022-11-16T11:36:40.652Z,15.10
2022-11-16T11:39:13.753Z,15.10
2022-11-16T11:41:43.296Z,15.19
2022-11-16T11:44:13.120Z,15.29
2022-11-16T11:47:35.047Z,15.23
2022-11-16T11:49:40.334Z,15.25
2022-11-16T11:52:21.078Z,15.28
2022-11-16T11:54:52.361Z,15.41
2022-11-16T11:57:24.008Z,15.27
2022-11-16T11:59:53.373Z,15.14
2022-11-16T12:02:40.179Z,15.10
2022-11-16T12:05:48.695Z,15.20
2022-11-16T12:08:50.987Z,15.09
2022-11-16T12:11:47.645Z,15.04
2022-11-16T12:14:35.601Z,15.01
2022-11-16T12:17:23.832Z,14.96
2022-11-16T12:20:20.006Z,14.99
2022-11-16T12:23:03.761Z,15.07
2022-11-16T12:26:00.868Z,15.11
2022-11-16T12:28:53.333Z,15.16
2022-11-16T12:31:34.959Z,15.16
2022-11-16T12:34:16.031Z,14.95
2022-11-16T12:37:21.272Z,14.98
2022-11-16T12:40:09.652Z,15.04
2022-11-16T12:42:55.238Z,15.15
2022-11-16T12:45:36.100Z,15.08
2022-11-16T12:48:34.390Z,15.10
2022-11-16T12:51:19.960Z,15.05
2022-11-16T12:53:52.850Z,15.03
2022-11-16T12:57:01.548Z,14.86
2022-11-16T12:59:35.911Z,14.85
2022-11-16T13:02:05.522Z,14.90
2022-11-16T13:04:37.227Z,14.73
2022-11-16T13:07:27.875Z,14.62
2022-11-16T13:10:14.580Z,14.71
2022-11-16T13:12:43.320Z,14.80
2022-11-16T13:15:19.565Z,14.91
2022-11-16T13:18:00.034Z,14.95
2022-11-16T13:20:46.715Z,15.01
2022-11-16T13:23:22.524Z,15.05
2022-11-16T13:25:57.428Z,15.00
2022-11-16T13:28:37.653Z,15.05
2022-11-16T13:31:31.879Z,14.91
2022-11-16T13:34:15.796Z,14.85
2022-11-16T13:36:45.303Z,14.78
2022-11-16T13:39:22.590Z,14.72
2022-11-16T13:42:07.441Z,14.70
2022-11-16T13:44:35.213Z,14.74
2022-11-16T13:47:05.984Z,14.68
2022-11-16T13:49:48.339Z,14.61
2022-11-16T13:52:23.684Z,14.71
2022-11-16T13:54:56.071Z,14.69
2022-11-16T13:57:31.055Z,14.63
2022-11-16T14:00:00.688Z,14.61
2022-11-16T14:02:37.893Z,14.66
2022-11-16T14:05:16.437Z,14.63
2022-11-16T14:07:50.116Z,14.66
2022-11-16T14:10:37.185Z,14.69
2022-11-16T14:13:05.334Z,14.69
2022-11-16T14:15:37.861Z,14.66
2022-11-16T14:18:07.741Z,14.65
2022-11-16T14:20:40.123Z,14.59
2022-11-16T14:23:15.746Z,14.60
2022-11-16T14:26:07.941Z,14.52
2022-11-16T14:29:00.591Z,14.50
2022-11-16T14:31:32.166Z,14.44
2022-11-16T14:34:01.011Z,14.41
2022-11-16T14:36:40.730Z,14.30
2022-11-16T14:39:30.481Z,14.21
2022-11-16T14:42:54.269Z,14.07
2022-11-16T14:45:28.669Z,13.97
2022-11-16T14:48:06.049Z,13.84
2022-11-16T14:50:39.616Z,13.82
2022-11-16T14:53:10.039Z,13.85
2022-11-16T14:55:43.436Z,13.79
2022-11-16T14:58:18.147Z,13.67
2022-11-16T15:00:57.244Z,13.68
2022-11-16T15:03:28.078Z,13.57
2022-11-16T15:06:00.999Z,13.56
2022-11-16T15:08:42.473Z,13.45
2022-11-16T15:11:20.605Z,13.43
2022-11-16T15:13:47.796Z,13.36
2022-11-16T15:16:20.740Z,13.35
2022-11-16T15:19:01.931Z,13.30
2022-11-16T15:21:29.482Z,13.22
2022-11-16T15:26:43.820Z,13.20
2022-11-16T15:29:22.329Z,13.27
2022-11-16T15:31:49.962Z,13.22
2022-11-16T15:34:20.560Z,13.20
2022-11-16T15:36:49.373Z,13.22
2022-11-16T15:39:23.402Z,13.16
2022-11-16T15:41:52.144Z,13.06
2022-11-16T15:44:21.663Z,13.00
2022-11-16T15:46:52.178Z,12.92
2022-11-16T15:49:37.936Z,12.87
2022-11-16T15:52:05.977Z,12.77
2022-11-16T15:54:55.287Z,12.74
2022-11-16T15:57:24.174Z,12.75
2022-11-16T15:59:57.512Z,12.68
2022-11-16T16:02:29.358Z,12.70
2022-11-16T16:04:56.782Z,12.65
2022-11-16T16:07:41.763Z,12.62
2022-11-16T16:10:25.846Z,12.59
2022-11-16T16:12:54.796Z,12.59
2022-11-16T16:15:25.454Z,12.53
2022-11-16T16:17:54.695Z,12.57
2022-11-16T16:20:24.645Z,12.51
2022-11-16T16:22:52.657Z,12.53
2022-11-16T16:25:50.294Z,12.49
2022-11-16T16:28:18.476Z,12.45
2022-11-16T16:30:45.739Z,12.37
2022-11-16T16:33:19.762Z,12.41
2022-11-16T16:35:49.987Z,12.42
2022-11-16T16:38:17.191Z,12.42
2022-11-16T16:40:44.175Z,12.43
2022-11-16T16:43:11.258Z,12.31
2022-11-16T16:45:42.270Z,12.44
2022-11-16T16:48:10.769Z,12.37
2022-11-16T16:50:39.278Z,12.33
2022-11-16T16:53:06.507Z,12.34
2022-11-16T16:55:37.484Z,12.33
2022-11-16T16:58:05.615Z,12.32
2022-11-16T17:00:36.950Z,12.35
2022-11-16T17:03:04.027Z,12.43
2022-11-16T17:05:34.254Z,12.33
2022-11-16T17:08:01.887Z,12.30
2022-11-16T17:10:29.276Z,12.29
2022-11-16T17:12:57.057Z,12.31
2022-11-16T17:15:25.106Z,12.30
2022-11-16T17:17:54.930Z,12.32
2022-11-16T17:20:21.924Z,12.36
2022-11-16T17:22:50.178Z,12.34
2022-11-16T17:25:17.641Z,12.27
2022-11-16T17:27:44.795Z,12.19
2022-11-16T17:30:12.694Z,12.28
2022-11-16T17:32:44.450Z,12.26
2022-11-16T17:35:12.198Z,12.31
2022-11-16T17:37:39.446Z,12.30
2022-11-16T17:40:07.199Z,12.28
2022-11-16T17:42:35.981Z,12.33
2022-11-16T17:45:13.314Z,12.28
2022-11-16T17:47:51.537Z,12.24
2022-11-16T17:50:22.128Z,12.25
2022-11-16T17:52:49.424Z,12.28
2022-11-16T17:55:24.807Z,12.22
2022-11-16T17:57:54.351Z,12.27
2022-11-16T18:00:21.498Z,12.31
2022-11-16T18:02:48.337Z,12.33
2022-11-16T18:05:16.608Z,12.35
2022-11-16T18:07:43.806Z,12.32
2022-11-16T18:10:13.778Z,12.34
2022-11-16T18:12:44.999Z,12.31
2022-11-16T18:15:27.922Z,12.27
2022-11-16T18:17:59.347Z,12.20
2022-11-16T18:20:28.118Z,12.36
2022-11-16T18:22:58.593Z,12.33
2022-11-16T18:25:25.540Z,12.37
2022-11-16T18:27:54.653Z,12.37
2022-11-16T18:30:23.233Z,12.32
2022-11-16T18:32:50.433Z,12.32
2022-11-16T18:35:18.104Z,12.30
2022-11-16T18:37:45.063Z,12.19
2022-11-16T18:40:15.614Z,12.06
2022-11-16T18:42:42.883Z,12.11
2022-11-16T18:45:10.174Z,12.09
2022-11-16T18:47:37.046Z,12.21
2022-11-16T18:50:20.137Z,12.23
2022-11-16T18:52:49.861Z,12.34
2022-11-16T18:55:18.221Z,12.32
2022-11-16T18:57:45.236Z,12.38
2022-11-16T19:00:13.210Z,12.34
2022-11-16T19:02:40.288Z,12.39
2022-11-16T19:05:08.036Z,12.37
2022-11-16T19:07:35.232Z,12.39
2022-11-16T19:10:02.355Z,12.28
2022-11-16T19:12:29.459Z,12.37
2022-11-16T19:14:56.485Z,12.37
2022-11-16T19:17:25.622Z,12.41
2022-11-16T19:19:52.800Z,12.44
2022-11-16T19:22:20.815Z,12.44
2022-11-16T19:24:47.941Z,12.39
2022-11-16T19:27:16.862Z,12.39
2022-11-16T19:29:43.787Z,12.46
2022-11-16T19:32:10.773Z,12.50
2022-11-16T19:34:37.767Z,12.48
2022-11-16T19:37:04.672Z,12.48
2022-11-16T19:39:31.545Z,12.51
2022-11-16T19:41:58.368Z,12.50
2022-11-16T19:44:25.223Z,12.53
2022-11-16T19:46:53.322Z,12.41
2022-11-16T19:49:21.952Z,12.46
2022-11-16T19:51:49.799Z,12.47
2022-11-16T19:54:19.685Z,12.48
2022-11-16T19:56:50.518Z,12.57
2022-11-16T19:59:20.537Z,12.63
2022-11-16T20:01:47.515Z,12.65
2022-11-16T20:04:15.562Z,12.67
2022-11-16T20:06:42.508Z,12.67
2022-11-16T20:09:12.140Z,12.65
2022-11-16T20:11:41.522Z,12.61
2022-11-16T20:14:10.677Z,12.63
2022-11-16T20:16:40.423Z,12.64
2022-11-16T20:19:09.343Z,12.65
2022-11-16T20:21:41.600Z,12.64
2022-11-16T20:24:11.777Z,12.63
2022-11-16T20:26:46.493Z,12.61
2022-11-16T20:29:15.339Z,12.65
2022-11-16T20:31:43.102Z,12.60
2022-11-16T20:34:16.582Z,12.64
2022-11-16T20:36:46.390Z,12.66
2022-11-16T20:39:16.410Z,12.65
2022-11-16T20:41:44.256Z,12.61
2022-11-16T20:44:18.675Z,12.67
2022-11-16T20:46:45.644Z,12.64
2022-11-16T20:49:12.896Z,12.64
2022-11-16T20:51:40.293Z,12.59
2022-11-16T20:54:07.545Z,12.63
2022-11-16T20:56:36.822Z,12.62
2022-11-16T20:59:04.133Z,12.57
2022-11-16T21:01:34.102Z,12.55
2022-11-16T21:04:04.190Z,12.55
2022-11-16T21:06:32.139Z,12.51
2022-11-16T21:08:59.782Z,12.49
2022-11-16T21:11:29.276Z,12.53
2022-11-16T21:16:44.160Z,12.45
2022-11-16T21:19:12.093Z,12.42
2022-11-16T21:21:41.047Z,12.40
2022-11-16T21:24:13.573Z,12.39
2022-11-16T21:26:40.758Z,12.41
2022-11-16T21:29:07.942Z,12.38
2022-11-16T21:31:36.691Z,12.33
2022-11-16T21:34:04.205Z,12.33
2022-11-16T21:36:32.393Z,12.35
2022-11-16T21:38:59.786Z,12.38
2022-11-16T21:41:27.422Z,12.41
2022-11-16T21:43:54.664Z,12.43
2022-11-16T21:46:26.880Z,12.33
2022-11-16T21:48:56.792Z,12.38
2022-11-16T21:51:26.564Z,12.43
2022-11-16T21:53:54.994Z,12.41
2022-11-16T21:56:24.866Z,12.32
2022-11-16T21:58:54.380Z,12.39
2022-11-16T22:01:23.217Z,12.35
2022-11-16T22:04:10.547Z,12.31
2022-11-16T22:06:56.729Z,12.32
2022-11-16T22:09:24.772Z,12.29
2022-11-16T22:11:51.822Z,12.30
2022-11-16T22:14:19.045Z,12.27
2022-11-16T22:16:46.984Z,12.28
2022-11-16T22:19:14.258Z,12.24
2022-11-16T22:21:41.324Z,12.30
2022-11-16T22:24:08.469Z,12.29
2022-11-16T23:01:14.222Z,12.31
2022-11-16T23:06:16.947Z,12.26
2022-11-16T23:08:44.050Z,12.24
2022-11-16T23:11:34.544Z,12.19
2022-11-16T23:14:20.506Z,12.23
2022-11-16T23:16:47.517Z,12.13
2022-11-16T23:19:34.845Z,12.18
2022-11-16T23:22:20.575Z,12.20
2022-11-16T23:25:05.897Z,12.16
2022-11-16T23:28:01.040Z,12.11
2022-11-16T23:30:27.896Z,12.09
2022-11-16T23:32:55.202Z,12.12
2022-11-16T23:35:22.654Z,12.04
2022-11-16T23:37:57.564Z,12.06
2022-11-16T23:40:36.004Z,11.98
2022-11-16T23:43:22.445Z,12.00
2022-11-16T23:45:49.715Z,12.04
2022-11-16T23:48:18.584Z,12.11
2022-11-16T23:50:46.346Z,12.00
2022-11-16T23:53:14.032Z,12.02
2022-11-16T23:55:41.168Z,11.97
2022-11-16T23:58:13.430Z,11.93
